This is the latest recevied weather packets stored in our database for station/object SR2ATJ-13. If no packets are shown the sender has not sent any weather packets the latest 10 day(s).
| Time | Temp. | Humidity | Pressure | Rain* | Wind** | Luminosity | Snow |
|---|---|---|---|---|---|---|---|
| 1777535704 | 11.11° C | 39% | 1030.9 hPa | - | - | - | - |
| 1777535104 | 10.56° C | 41% | 1031.1 hPa | - | - | - | - |
| 1777534503 | 10° C | 39% | 1030.9 hPa | - | - | - | - |
| 1777533905 | 10° C | 39% | 1030.9 hPa | - | - | - | - |
| 1777533303 | 9.44° C | 40% | 1031 hPa | - | - | - | - |
| 1777532703 | 9.44° C | 40% | 1031 hPa | - | - | - | - |
| 1777532103 | 9.44° C | 40% | 1031.1 hPa | - | - | - | - |
| 1777531503 | 9.44° C | 40% | 1031.2 hPa | - | - | - | - |
| 1777530903 | 9.44° C | 42% | 1031.1 hPa | - | - | - | - |
| 1777530304 | 8.33° C | 42% | 1031.1 hPa | - | - | - | - |
| 1777529703 | 7.78° C | 44% | 1031 hPa | - | - | - | - |
| 1777529105 | 7.22° C | 47% | 1031 hPa | - | - | - | - |
| 1777528503 | 7.22° C | 50% | 1031.1 hPa | - | - | - | - |
| 1777526703 | 5° C | 57% | 1031.3 hPa | - | - | - | - |
| 1777526103 | 3.89° C | 62% | 1031.4 hPa | - | - | - | - |
| 1777525503 | 2.78° C | 65% | 1031.6 hPa | - | - | - | - |
| 1777524904 | 1.67° C | 66% | 1031.6 hPa | - | - | - | - |
| 1777524303 | 1.11° C | 66% | 1031.7 hPa | - | - | - | - |
| 1777523703 | 0.56° C | 67% | 1031.8 hPa | - | - | - | - |
| 1777523103 | 0° C | 68% | 1031.8 hPa | - | - | - | - |
| 1777522504 | 0° C | 68% | 1031.9 hPa | - | - | - | - |
| 1777521905 | -0.56° C | 68% | 1032 hPa | - | - | - | - |
| 1777521303 | -1.11° C | 67% | 1031.9 hPa | - | - | - | - |
| 1777519503 | -1.67° C | 67% | 1031.9 hPa | - | - | - | - |
| 1777518903 | -2.22° C | 67% | 1031.9 hPa | - | - | - | - |
* Rain since midnight (hover to see other rain measurements)
** Current wind speed in m/s (hover to see current wind gust speed)